Archival Weather

Chicago O'Hare International

Chicago, Illinois (KORD)

Report from: Saturday, August 6, 2022 12:51 PM CDT
Current time: Friday, August 19, 2022 12:47 AM CDT

Current weather
Weather history
Weather forecast

Temperature32.2°C (90.0°F)
Heat index35.8°C (96.4°F)
Dew point21.7°C (71.1°F)
Winds 11 kts (5.7 m/s, 12.7 mph) Southwest (220°)
Visibility10 mi. (16.1 km)
Clouds Scattered clouds 4,200 ft. (1,280 m)
Ceiling: Broken clouds 6,000 ft. (1,829 m)
Broken clouds 25,000 ft. (7,620 m)
Altimeter30.05 in.Hg (1018 mB)
Relative humidity54 %
Density altitude2,166 ft. (660 m)
Sea-level pressure101.7 kPa (1017 mB, 30.03 in.Hg)
Max temp last 6 hours32.8°C (91.0°F)
Min temp last 6 hours23.9°C (75.0°F)
Remarks Automated weather observing station with precipitation discriminator
Pressure falling more quickly
Flight conditions Visual Meteorological Conditions
Raw dataKORD 061751Z 22011KT 10SM SCT042 BKN060 BKN250 32/22 A3005 RMK AO2 SLP169 T03220217 10328 20239 58008
An unhandled exception has occurred. See browser dev tools for details. Reload 🗙